Arminto, WY

10:31 PM MDT on August 01, 2014 (GMT -0600)
Natrona County International (KCPR) Elev 5289 ft | 42.90 °N, 106.47 °W | Change Station

Current weather conditions updated 38 minutes ago

Clear
Clear
66 °F
Feels Like 66 °F
N
8
Wind Variable Wind from NE

Tomorrow is forecast to be Cooler than today.

Today
High -- | Low -- °F
--% Chance of Precip.
Yesterday
High -- | Low -- °F
Precip. -- in
6:00 AM 8:30 PM
Waxing Crescent, 32% visible
Pressure 30.04 in
Visibility 10.0 miles
Clouds Clear
Dew Point 34 °F
Humidity 30%
Rainfall 0.00 in
Snow Depth Not available.
UV 0 out of 12
Pollen 6.60 out of 12
Air Quality Not available.
Flu Activity Not available.
METAR KCPR 020353Z 05007KT 10SM CLR 19/01 A3024 RMK AO2 SLP172 T01890011

More Conditions Fewer Conditions

Pressure 30.04 in
Visibility 10.0 miles
Clouds Clear
Dew Point 34 °F
Humidity 30%
Rainfall 0.00 in
Snow Depth Not available.
UV 0 out of 12
Pollen 6.60 out of 12
Air Quality Not available.
Flu Activity Not available.
METAR KCPR 020353Z 05007KT 10SM CLR 19/01 A3024 RMK AO2 SLP172 T01890011

More Conditions Fewer Conditions

10-Day Weather Forecast

Almanac

Astronomy

Aug. 01, 2014 Rise Set
Actual Time 6:00 AM MDT 8:30 PM MDT
Civil Twilight 5:27 AM MDT 9:03 PM MDT
Nautical Twilight 4:47 AM MDT 9:43 PM MDT
Astronomical Twilight 4:01 AM MDT 10:28 PM MDT
Moon 11:36 AM MDT (8/1) 11:06 PM MDT (8/1)
Length of Visible Light 15h 35m
Length of Day
14h 30m
Tomorrow will be 2m 15s shorter.
Waxing Crescent, 32% of the Moon is Illuminated
Aug 2
Waxing Crescent
Aug 3
First Quarter
Aug 10
Full
Aug 17
Last Quarter
Aug 25
New

Today's Extremes

State Highs State Lows

Community

WunderPhotos

Upload Photos

1,739,820 photos uploaded!

Nearby

Snow Depth

Station Depth Elevation
Casper Mountain 0 in 7850 ft
Big Sandy Opening 0 in 9080 ft
Bone Springs Divide 0 in 9350 ft
Burgess Junction 0 in 7880 ft
Burroughs Creek 0 in 8750 ft

Earthquake Activity

City Distance Mag. Time & Date
No recent earthquake activity has been reported nearby.
Minimum magnitude displayed is 2.5.

Coastal Water Temperatures

Place Temperature
No Stations Reporting

Nearby Weather Stations

There are no personal weather stations in this area.